createdAt,value
2022-11-06T00:01:36.712Z,13.70
2022-11-06T00:04:03.612Z,13.70
2022-11-06T00:06:48.434Z,13.70
2022-11-06T00:09:19.769Z,13.70
2022-11-06T00:11:48.111Z,13.70
2022-11-06T00:14:15.386Z,13.70
2022-11-06T00:16:43.036Z,13.80
2022-11-06T00:19:10.204Z,13.90
2022-11-06T00:21:37.330Z,13.90
2022-11-06T00:24:06.362Z,13.80
2022-11-06T00:26:34.520Z,13.80
2022-11-06T00:29:02.316Z,13.90
2022-11-06T00:31:35.799Z,13.90
2022-11-06T00:34:03.452Z,13.90
2022-11-06T00:36:31.044Z,13.80
2022-11-06T00:38:58.756Z,13.80
2022-11-06T00:41:26.607Z,13.40
2022-11-06T00:43:56.488Z,13.80
2022-11-06T00:46:23.451Z,13.70
2022-11-06T00:48:51.871Z,13.70
2022-11-06T00:51:21.942Z,13.70
2022-11-06T00:53:53.663Z,13.70
2022-11-06T00:56:20.892Z,13.70
2022-11-06T00:58:48.478Z,13.80
2022-11-06T01:01:17.977Z,13.70
2022-11-06T01:03:46.618Z,13.80
2022-11-06T01:06:17.894Z,13.90
2022-11-06T01:08:45.867Z,13.80
2022-11-06T01:11:15.660Z,13.90
2022-11-06T01:13:42.661Z,13.90
2022-11-06T01:16:12.151Z,13.80
2022-11-06T01:18:39.578Z,13.80
2022-11-06T01:21:08.209Z,13.90
2022-11-06T01:23:35.136Z,13.90
2022-11-06T01:26:03.738Z,14.10
2022-11-06T01:28:30.768Z,14.00
2022-11-06T01:31:01.741Z,14.00
2022-11-06T01:33:29.028Z,13.90
2022-11-06T01:35:55.714Z,13.70
2022-11-06T01:38:22.639Z,13.70
2022-11-06T01:40:49.516Z,13.70
2022-11-06T01:43:38.734Z,13.50
2022-11-06T01:46:05.439Z,13.40
2022-11-06T01:48:32.239Z,13.60
2022-11-06T01:50:59.417Z,13.70
2022-11-06T01:53:26.735Z,13.70
2022-11-06T01:55:58.028Z,13.70
2022-11-06T01:58:27.158Z,13.60
2022-11-06T02:00:54.305Z,13.40
2022-11-06T02:03:22.498Z,13.50
2022-11-06T02:05:49.334Z,13.80
2022-11-06T02:08:19.569Z,13.90
2022-11-06T02:10:47.313Z,13.70
2022-11-06T02:13:20.073Z,13.60
2022-11-06T02:15:46.892Z,13.70
2022-11-06T02:18:45.628Z,13.50
2022-11-06T02:21:17.995Z,13.50
2022-11-06T02:24:10.156Z,13.50
2022-11-06T02:27:12.612Z,13.40
2022-11-06T02:30:00.445Z,13.40
2022-11-06T02:32:54.488Z,13.30
2022-11-06T02:35:32.661Z,13.00
2022-11-06T02:38:16.043Z,13.50
2022-11-06T02:40:48.063Z,13.40
2022-11-06T02:43:17.015Z,13.60
2022-11-06T02:46:12.662Z,13.60
2022-11-06T02:48:45.749Z,13.70
2022-11-06T02:51:15.741Z,13.70
2022-11-06T02:53:45.261Z,13.60
2022-11-06T02:56:25.791Z,13.70
2022-11-06T02:58:54.765Z,13.70
2022-11-06T03:01:27.790Z,13.30
2022-11-06T03:03:59.466Z,13.00
2022-11-06T03:06:32.682Z,12.90
2022-11-06T03:09:06.730Z,12.60
2022-11-06T03:11:38.808Z,12.70
2022-11-06T03:14:05.590Z,12.80
2022-11-06T03:16:56.010Z,13.00
2022-11-06T03:19:37.463Z,12.80
2022-11-06T03:22:27.082Z,13.00
2022-11-06T03:25:03.016Z,13.20
2022-11-06T03:27:35.874Z,13.40
2022-11-06T03:30:12.565Z,13.50
2022-11-06T03:32:54.542Z,13.60
2022-11-06T03:36:06.492Z,13.70
2022-11-06T03:38:51.643Z,13.70
2022-11-06T03:41:38.655Z,13.70
2022-11-06T03:44:08.626Z,13.80
2022-11-06T03:46:39.998Z,13.90
2022-11-06T03:49:13.687Z,13.90
2022-11-06T03:52:00.292Z,13.90
2022-11-06T03:54:32.332Z,14.00
2022-11-06T03:57:11.396Z,14.10
2022-11-06T03:59:50.211Z,14.00
2022-11-06T04:02:19.218Z,14.00
2022-11-06T04:04:49.127Z,14.10
2022-11-06T04:07:21.018Z,14.60
2022-11-06T04:10:15.642Z,14.20
2022-11-06T04:13:02.862Z,14.20
2022-11-06T04:15:34.730Z,14.10
2022-11-06T04:18:01.438Z,14.20
2022-11-06T04:20:57.594Z,14.20
2022-11-06T04:24:27.759Z,14.60
2022-11-06T04:27:26.700Z,14.30
2022-11-06T04:30:09.856Z,14.20
2022-11-06T04:33:00.375Z,14.20
2022-11-06T04:35:31.187Z,14.20
2022-11-06T04:38:01.336Z,14.20
2022-11-06T04:40:34.365Z,14.30
2022-11-06T04:43:13.869Z,14.40
2022-11-06T04:45:45.891Z,14.30
2022-11-06T04:48:13.753Z,14.30
2022-11-06T04:50:44.660Z,14.20
2022-11-06T04:53:12.621Z,14.20
2022-11-06T04:55:50.053Z,14.10
2022-11-06T04:58:16.830Z,14.20
2022-11-06T05:00:47.134Z,14.20
2022-11-06T05:03:15.169Z,14.10
2022-11-06T05:05:42.637Z,14.00
2022-11-06T05:08:17.322Z,14.00
2022-11-06T05:10:44.759Z,13.90
2022-11-06T05:13:12.454Z,13.80
2022-11-06T05:15:39.216Z,13.80
2022-11-06T05:18:07.017Z,13.90
2022-11-06T05:20:33.991Z,14.00
2022-11-06T05:23:01.098Z,13.90
2022-11-06T05:25:40.377Z,13.80
2022-11-06T05:28:08.395Z,13.70
2022-11-06T05:30:36.739Z,13.90
2022-11-06T05:33:04.114Z,13.90
2022-11-06T05:35:30.887Z,13.90
2022-11-06T05:38:02.035Z,14.00
2022-11-06T05:40:29.002Z,13.80
2022-11-06T05:42:56.001Z,14.10
2022-11-06T05:45:22.713Z,13.90
2022-11-06T05:47:49.478Z,14.00
2022-11-06T05:50:16.493Z,14.00
2022-11-06T05:52:43.236Z,13.90
2022-11-06T05:55:14.727Z,14.00
2022-11-06T05:57:42.509Z,14.00
2022-11-06T06:00:10.737Z,14.00
2022-11-06T06:02:38.175Z,14.00
2022-11-06T06:05:06.361Z,14.00
2022-11-06T06:07:33.337Z,14.00
2022-11-06T06:10:00.033Z,14.10
2022-11-06T06:12:26.942Z,14.10
2022-11-06T06:14:54.304Z,14.10
2022-11-06T06:17:21.828Z,14.10
2022-11-06T06:19:48.995Z,14.10
2022-11-06T06:22:15.858Z,14.10
2022-11-06T06:24:42.704Z,14.10
2022-11-06T06:27:09.591Z,14.10
2022-11-06T06:29:36.323Z,14.10
2022-11-06T06:32:04.695Z,14.10
2022-11-06T06:34:31.481Z,14.10
2022-11-06T06:36:58.262Z,14.10
2022-11-06T06:39:24.982Z,14.20
2022-11-06T06:41:51.767Z,14.10
2022-11-06T06:44:18.493Z,13.70
2022-11-06T06:46:45.213Z,13.40
2022-11-06T06:49:12.194Z,13.40
2022-11-06T06:51:38.983Z,13.30
2022-11-06T06:54:05.884Z,13.60
2022-11-06T06:56:32.585Z,13.30
2022-11-06T06:58:59.544Z,13.50
2022-11-06T07:01:26.388Z,13.60
2022-11-06T07:03:53.278Z,13.80
2022-11-06T07:06:20.483Z,13.80
2022-11-06T07:08:47.565Z,13.80
2022-11-06T07:11:14.605Z,13.50
2022-11-06T07:13:41.397Z,13.40
2022-11-06T07:16:10.234Z,13.40
2022-11-06T07:18:37.949Z,13.60
2022-11-06T07:21:06.359Z,13.80
2022-11-06T07:23:34.896Z,13.80
2022-11-06T07:26:02.128Z,13.90
2022-11-06T07:28:28.974Z,13.80
2022-11-06T07:31:04.915Z,13.90
2022-11-06T07:33:32.046Z,14.00
2022-11-06T07:36:07.182Z,14.10
2022-11-06T07:38:35.117Z,14.20
2022-11-06T07:41:03.885Z,13.70
2022-11-06T07:43:31.194Z,13.30
2022-11-06T07:46:02.668Z,12.90
2022-11-06T07:48:30.809Z,12.80
2022-11-06T07:50:58.350Z,12.90
2022-11-06T07:53:25.210Z,13.00
2022-11-06T07:55:53.869Z,13.00
2022-11-06T07:58:21.344Z,13.00
2022-11-06T08:00:50.152Z,12.90
2022-11-06T08:03:18.504Z,12.90
2022-11-06T08:05:45.454Z,12.80
2022-11-06T08:08:12.908Z,12.80
2022-11-06T08:10:40.682Z,12.50
2022-11-06T08:13:07.846Z,12.40
2022-11-06T08:15:34.535Z,12.60
2022-11-06T08:18:01.272Z,12.80
2022-11-06T08:20:28.041Z,13.20
2022-11-06T08:22:59.605Z,13.50
2022-11-06T08:25:26.709Z,13.70
2022-11-06T08:27:57.695Z,13.70
2022-11-06T08:30:24.865Z,13.80
2022-11-06T08:32:51.909Z,13.70
2022-11-06T08:35:19.049Z,13.90
2022-11-06T08:37:46.182Z,13.90
2022-11-06T08:40:13.127Z,14.20
2022-11-06T08:42:40.016Z,14.10
2022-11-06T08:45:07.302Z,14.10
2022-11-06T08:47:34.073Z,14.20
2022-11-06T08:50:00.808Z,14.30
2022-11-06T08:52:32.810Z,14.30
2022-11-06T08:55:00.728Z,14.30
2022-11-06T08:57:28.206Z,14.40
2022-11-06T08:59:54.889Z,14.40
2022-11-06T09:02:21.696Z,14.50
2022-11-06T09:04:48.512Z,14.50
2022-11-06T09:07:16.298Z,14.30
2022-11-06T09:09:43.018Z,14.40
2022-11-06T09:12:10.094Z,14.40
2022-11-06T09:14:36.874Z,14.50
2022-11-06T09:17:03.633Z,14.50
2022-11-06T09:19:30.320Z,14.50
2022-11-06T09:21:57.094Z,14.40
2022-11-06T09:24:43.246Z,14.40
2022-11-06T09:27:10.562Z,14.50
2022-11-06T09:29:40.773Z,14.60
2022-11-06T09:32:07.690Z,14.40
2022-11-06T09:34:34.460Z,14.50
2022-11-06T09:37:03.279Z,14.60
2022-11-06T09:39:29.961Z,14.70
2022-11-06T09:42:30.270Z,14.60
2022-11-06T09:45:14.433Z,14.70
2022-11-06T09:47:47.884Z,14.80
2022-11-06T09:50:19.796Z,14.80
2022-11-06T09:52:54.433Z,14.90
2022-11-06T09:55:24.225Z,14.90
2022-11-06T09:58:11.829Z,15.00
2022-11-06T10:00:40.110Z,15.10
2022-11-06T10:03:25.946Z,15.10
2022-11-06T10:05:53.668Z,15.10
2022-11-06T10:08:27.202Z,15.00
2022-11-06T10:11:16.498Z,14.90
2022-11-06T10:13:54.524Z,14.60
2022-11-06T10:16:34.506Z,14.70
2022-11-06T10:19:12.064Z,14.80
2022-11-06T10:21:55.208Z,14.80
2022-11-06T10:24:26.141Z,14.80
2022-11-06T10:26:56.920Z,14.80
2022-11-06T10:29:52.391Z,14.20
2022-11-06T10:32:56.893Z,14.70
2022-11-06T10:35:55.229Z,14.80
2022-11-06T10:38:33.893Z,14.70
2022-11-06T10:41:02.001Z,14.60
2022-11-06T10:43:47.019Z,14.60
2022-11-06T10:46:41.308Z,14.50
2022-11-06T10:49:30.356Z,14.40
2022-11-06T10:52:12.544Z,14.70
2022-11-06T10:54:52.601Z,14.60
2022-11-06T10:57:38.236Z,14.80
2022-11-06T11:00:05.882Z,14.90
2022-11-06T11:02:37.031Z,15.00
2022-11-06T11:05:13.280Z,14.90
2022-11-06T11:07:40.676Z,14.90
2022-11-06T11:10:31.943Z,14.90
2022-11-06T11:13:06.909Z,15.00
2022-11-06T11:15:44.828Z,15.10
2022-11-06T11:18:34.425Z,15.00
2022-11-06T11:21:20.468Z,15.10
2022-11-06T11:24:06.188Z,15.20
2022-11-06T11:26:37.703Z,15.00
2022-11-06T11:29:17.609Z,15.10
2022-11-06T11:31:51.985Z,15.20
2022-11-06T11:34:28.841Z,15.20
2022-11-06T11:37:02.839Z,15.20
2022-11-06T11:39:34.090Z,15.10
2022-11-06T11:42:21.897Z,15.00
2022-11-06T11:45:09.300Z,15.10
2022-11-06T11:47:46.710Z,14.90
2022-11-06T11:50:27.142Z,14.80
2022-11-06T11:53:12.122Z,14.90
2022-11-06T11:55:45.386Z,15.00
2022-11-06T11:58:22.531Z,15.10
2022-11-06T12:00:59.695Z,14.80
2022-11-06T12:03:32.379Z,14.80
2022-11-06T12:06:25.298Z,14.90
2022-11-06T12:08:55.108Z,14.80
2022-11-06T12:11:28.885Z,14.30
2022-11-06T12:14:28.475Z,14.60
2022-11-06T12:17:10.359Z,14.70
2022-11-06T12:19:39.448Z,14.70
2022-11-06T12:22:16.743Z,14.90
2022-11-06T12:24:53.580Z,15.00
2022-11-06T12:27:31.432Z,15.10
2022-11-06T12:30:12.567Z,15.10
2022-11-06T12:33:04.643Z,15.10
2022-11-06T12:35:42.469Z,14.80
2022-11-06T12:38:43.653Z,14.60
2022-11-06T12:41:30.659Z,14.70
2022-11-06T12:43:58.382Z,14.80
2022-11-06T12:46:44.809Z,14.90
2022-11-06T12:49:36.093Z,14.80
2022-11-06T12:52:17.645Z,15.00
2022-11-06T12:55:09.034Z,15.30
2022-11-06T12:57:57.781Z,15.20
2022-11-06T13:00:48.023Z,15.00
2022-11-06T13:03:33.289Z,15.80
2022-11-06T13:06:17.308Z,16.20
2022-11-06T13:09:01.876Z,16.40
2022-11-06T13:11:52.754Z,16.60
2022-11-06T13:14:35.746Z,16.50
2022-11-06T13:17:21.080Z,15.80
2022-11-06T13:20:11.185Z,15.40
2022-11-06T13:23:04.726Z,15.40
2022-11-06T13:26:01.974Z,15.20
2022-11-06T13:28:37.886Z,15.30
2022-11-06T13:31:08.195Z,15.20
2022-11-06T13:33:43.788Z,15.20
2022-11-06T13:36:11.264Z,15.20
2022-11-06T13:38:47.080Z,15.30
2022-11-06T13:41:20.557Z,15.10
2022-11-06T13:44:00.585Z,14.90
2022-11-06T13:47:00.208Z,15.10
2022-11-06T13:49:33.071Z,15.00
2022-11-06T13:52:24.382Z,15.10
2022-11-06T13:55:03.423Z,14.90
2022-11-06T13:57:54.538Z,14.80
2022-11-06T14:00:54.893Z,14.80
2022-11-06T14:03:52.509Z,14.90
2022-11-06T14:06:26.784Z,14.80
2022-11-06T14:08:59.110Z,14.80
2022-11-06T14:11:29.456Z,14.90
2022-11-06T14:14:02.833Z,15.00
2022-11-06T14:16:38.709Z,15.00
2022-11-06T14:19:12.232Z,14.40
2022-11-06T14:21:49.525Z,14.40
2022-11-06T14:24:35.014Z,14.20
2022-11-06T14:27:06.707Z,14.50
2022-11-06T14:29:33.363Z,14.50
2022-11-06T14:32:10.510Z,14.40
2022-11-06T14:34:42.314Z,14.60
2022-11-06T14:37:20.629Z,14.40
2022-11-06T14:39:56.489Z,14.00
2022-11-06T14:42:46.124Z,14.00
2022-11-06T14:45:22.517Z,13.90
2022-11-06T14:47:54.369Z,13.10
2022-11-06T14:50:50.641Z,13.50
2022-11-06T14:53:25.818Z,13.00
2022-11-06T14:56:06.351Z,12.90
2022-11-06T14:58:47.049Z,12.80
2022-11-06T15:01:16.185Z,13.00
2022-11-06T15:04:01.065Z,13.10
2022-11-06T15:06:33.982Z,13.40
2022-11-06T15:09:11.222Z,13.70
2022-11-06T15:11:47.480Z,13.90
2022-11-06T15:14:17.841Z,14.30
2022-11-06T15:16:45.709Z,15.00
2022-11-06T15:19:35.317Z,15.10
2022-11-06T15:22:42.597Z,15.10
2022-11-06T15:25:28.065Z,15.00
2022-11-06T15:28:13.951Z,14.70
2022-11-06T15:30:49.804Z,14.80
2022-11-06T15:33:26.996Z,14.70
2022-11-06T15:35:56.241Z,14.50
2022-11-06T15:38:36.543Z,13.90
2022-11-06T15:41:03.556Z,13.70
2022-11-06T15:43:36.260Z,13.40
2022-11-06T15:46:15.226Z,13.00
2022-11-06T15:48:42.058Z,12.80
2022-11-06T15:51:29.292Z,12.70
2022-11-06T15:53:56.604Z,12.40
2022-11-06T15:56:33.699Z,12.40
2022-11-06T15:59:13.373Z,12.40
2022-11-06T16:01:41.183Z,12.30
2022-11-06T16:04:22.160Z,12.40
2022-11-06T16:06:51.557Z,12.30
2022-11-06T16:09:22.181Z,12.30
2022-11-06T16:11:51.463Z,12.20
2022-11-06T16:14:19.273Z,12.10
2022-11-06T16:16:49.003Z,12.10
2022-11-06T16:19:31.676Z,12.10
2022-11-06T16:22:09.211Z,12.10
2022-11-06T16:25:04.453Z,11.90
2022-11-06T16:27:38.111Z,11.90
2022-11-06T16:30:06.486Z,11.90
2022-11-06T16:32:39.657Z,12.00
2022-11-06T16:35:33.348Z,12.00
2022-11-06T16:38:39.828Z,12.10
2022-11-06T16:41:06.748Z,12.20
2022-11-06T16:43:33.717Z,12.20
2022-11-06T16:46:07.978Z,12.00
2022-11-06T16:48:37.041Z,11.60
2022-11-06T16:51:09.994Z,12.10
2022-11-06T16:54:06.270Z,12.20
2022-11-06T16:56:34.631Z,12.40
2022-11-06T16:59:08.775Z,12.30
2022-11-06T17:01:44.379Z,12.20
2022-11-06T17:04:29.999Z,12.30
2022-11-06T17:06:58.309Z,12.40
2022-11-06T17:09:33.444Z,12.40
2022-11-06T17:12:01.743Z,12.40
2022-11-06T17:14:30.589Z,12.50
2022-11-06T17:16:59.788Z,12.40
2022-11-06T17:19:28.716Z,12.40
2022-11-06T17:21:55.880Z,12.30
2022-11-06T17:24:38.518Z,12.40
2022-11-06T17:27:05.642Z,12.30
2022-11-06T17:29:35.056Z,12.30
2022-11-06T17:32:01.988Z,12.30
2022-11-06T17:34:28.690Z,12.20
2022-11-06T17:36:55.521Z,12.10
2022-11-06T17:39:22.589Z,12.20
2022-11-06T17:41:49.335Z,12.20
2022-11-06T17:44:16.957Z,12.20
2022-11-06T17:46:45.718Z,12.40
2022-11-06T17:49:17.537Z,11.90
2022-11-06T17:51:58.611Z,11.90
2022-11-06T17:54:33.929Z,11.90
2022-11-06T17:57:03.631Z,11.90
2022-11-06T17:59:31.205Z,11.90
2022-11-06T18:01:58.483Z,11.80
2022-11-06T18:04:27.648Z,11.90
2022-11-06T18:06:54.941Z,12.00
2022-11-06T18:09:24.238Z,12.10
2022-11-06T18:11:52.841Z,11.80
2022-11-06T18:14:20.783Z,11.90
2022-11-06T18:16:48.408Z,12.00
2022-11-06T18:19:17.894Z,11.90
2022-11-06T18:21:44.726Z,12.00
2022-11-06T18:24:11.631Z,11.70
2022-11-06T18:26:38.469Z,11.60
2022-11-06T18:29:06.723Z,11.70
2022-11-06T18:31:34.085Z,11.80
2022-11-06T18:34:01.220Z,11.80
2022-11-06T18:36:28.089Z,11.80
2022-11-06T18:38:55.148Z,11.80
2022-11-06T18:41:22.294Z,11.70
2022-11-06T18:43:49.292Z,11.80
2022-11-06T18:46:17.992Z,11.80
2022-11-06T18:48:45.084Z,11.80
2022-11-06T18:51:35.200Z,11.80
2022-11-06T18:54:06.168Z,12.30
2022-11-06T18:56:35.813Z,11.90
2022-11-06T18:59:03.130Z,11.90
2022-11-06T19:01:30.059Z,11.80
2022-11-06T19:03:57.687Z,11.80
2022-11-06T19:06:24.492Z,11.80
2022-11-06T19:08:51.352Z,11.80
2022-11-06T19:11:18.985Z,11.70
2022-11-06T19:13:48.672Z,11.60
2022-11-06T19:16:16.719Z,11.70
2022-11-06T19:18:43.453Z,11.60
2022-11-06T19:21:12.649Z,11.20
2022-11-06T19:23:41.695Z,11.70
2022-11-06T19:26:29.921Z,11.70
2022-11-06T19:28:58.202Z,11.40
2022-11-06T19:31:29.344Z,11.50
2022-11-06T19:33:57.637Z,11.50
2022-11-06T19:36:25.380Z,11.30
2022-11-06T19:38:52.815Z,11.60
2022-11-06T19:41:20.413Z,11.30
2022-11-06T19:43:47.384Z,11.20
2022-11-06T19:46:18.226Z,11.30
2022-11-06T19:48:47.799Z,11.60
2022-11-06T19:51:15.988Z,11.40
2022-11-06T19:53:44.418Z,11.40
2022-11-06T19:56:16.337Z,11.50
2022-11-06T19:58:43.186Z,11.50
2022-11-06T20:01:16.692Z,11.50
2022-11-06T20:03:43.488Z,11.40
2022-11-06T20:06:10.851Z,11.30
2022-11-06T20:08:38.781Z,11.30
2022-11-06T20:11:14.998Z,11.20
2022-11-06T20:13:43.108Z,11.30
2022-11-06T20:16:16.478Z,11.40
2022-11-06T20:18:44.551Z,11.30
2022-11-06T20:21:12.742Z,11.30
2022-11-06T20:23:39.865Z,11.40
2022-11-06T20:26:07.449Z,11.50
2022-11-06T20:28:34.577Z,11.40
2022-11-06T20:31:07.670Z,11.30
2022-11-06T20:37:15.505Z,11.40
2022-11-06T20:39:42.382Z,11.50
2022-11-06T20:42:09.176Z,11.30
2022-11-06T20:44:36.743Z,11.20
2022-11-06T20:47:03.447Z,11.10
2022-11-06T20:49:31.045Z,11.20
2022-11-06T20:52:13.740Z,11.10
2022-11-06T20:54:46.334Z,11.10
2022-11-06T20:57:17.220Z,11.10
2022-11-06T20:59:44.009Z,11.60
2022-11-06T21:02:12.023Z,11.20
2022-11-06T21:04:38.964Z,11.20
2022-11-06T21:07:05.746Z,11.00
2022-11-06T21:09:32.499Z,11.10
2022-11-06T21:11:59.736Z,11.10
2022-11-06T21:14:26.523Z,11.10
2022-11-06T21:16:54.111Z,11.10
2022-11-06T21:19:20.950Z,11.00
2022-11-06T21:21:47.857Z,11.30
2022-11-06T21:24:14.776Z,11.10
2022-11-06T21:26:41.662Z,11.20
2022-11-06T21:29:10.792Z,11.00
2022-11-06T21:31:47.509Z,11.10
2022-11-06T21:34:16.779Z,11.20
2022-11-06T21:36:44.095Z,11.20
2022-11-06T21:39:14.626Z,11.10
2022-11-06T21:41:41.761Z,11.20
2022-11-06T21:44:12.440Z,11.20
2022-11-06T21:46:45.248Z,11.20
2022-11-06T21:49:13.690Z,11.10
2022-11-06T21:51:40.932Z,11.10
2022-11-06T21:54:28.653Z,10.90
2022-11-06T21:56:55.543Z,10.90
2022-11-06T21:59:26.838Z,10.90
2022-11-06T22:01:54.751Z,11.00
2022-11-06T22:04:21.604Z,11.40
2022-11-06T22:06:48.448Z,11.10
2022-11-06T22:09:16.595Z,11.00
2022-11-06T22:11:45.232Z,11.00
2022-11-06T22:14:15.600Z,11.20
2022-11-06T22:16:44.827Z,11.20
2022-11-06T22:19:12.395Z,11.30
2022-11-06T22:21:40.377Z,11.30
2022-11-06T22:24:08.072Z,11.20
2022-11-06T22:26:36.368Z,11.30
2022-11-06T22:29:07.544Z,11.30
2022-11-06T22:31:34.714Z,11.30
2022-11-06T22:34:01.494Z,11.50
2022-11-06T22:36:28.294Z,11.40
2022-11-06T22:38:55.447Z,11.50
2022-11-06T22:41:24.559Z,12.00
2022-11-06T22:43:52.420Z,11.20
2022-11-06T22:46:23.479Z,11.60
2022-11-06T22:48:51.875Z,11.50
2022-11-06T22:51:25.475Z,11.50
2022-11-06T22:53:52.760Z,11.60
2022-11-06T22:56:23.968Z,11.40
2022-11-06T22:59:00.452Z,11.40
2022-11-06T23:01:29.243Z,11.40
2022-11-06T23:04:03.499Z,11.40
2022-11-06T23:06:30.911Z,11.50
2022-11-06T23:08:58.399Z,11.60
2022-11-06T23:11:27.059Z,11.50
2022-11-06T23:13:54.503Z,11.50
2022-11-06T23:16:44.522Z,11.50
2022-11-06T23:19:13.917Z,11.60
2022-11-06T23:21:41.761Z,11.50
2022-11-06T23:24:09.215Z,11.20
2022-11-06T23:26:35.999Z,11.70
2022-11-06T23:29:03.508Z,11.70
2022-11-06T23:31:30.463Z,11.50
2022-11-06T23:33:57.194Z,11.60
2022-11-06T23:36:24.103Z,11.60
2022-11-06T23:38:54.049Z,11.60
2022-11-06T23:41:39.379Z,11.60
2022-11-06T23:44:26.207Z,11.50
2022-11-06T23:46:53.218Z,11.50
2022-11-06T23:49:20.050Z,11.60
2022-11-06T23:51:46.757Z,11.40
2022-11-06T23:54:13.554Z,11.40
2022-11-06T23:56:40.320Z,11.50
2022-11-06T23:59:07.065Z,11.40
